sensor_id;sensor_type;location;lat;lon;timestamp;pressure;altitude;pressure_sealevel;temperature;humidity
39843;BME280;25514;46.764;15.406;2022-08-05T00:01:57;96995.75;;;21.98;68.12
39843;BME280;25514;46.764;15.406;2022-08-05T00:04:22;96983.63;;;22.07;67.30
39843;BME280;25514;46.764;15.406;2022-08-05T00:06:48;96990.97;;;22.16;66.95
39843;BME280;25514;46.764;15.406;2022-08-05T00:09:13;96978.81;;;22.07;67.34
39843;BME280;25514;46.764;15.406;2022-08-05T00:11:39;96989.19;;;22.01;67.34
39843;BME280;25514;46.764;15.406;2022-08-05T00:14:04;96982.09;;;22.00;67.20
39843;BME280;25514;46.764;15.406;2022-08-05T00:16:30;96980.06;;;22.01;66.53
39843;BME280;25514;46.764;15.406;2022-08-05T00:18:55;96980.81;;;22.01;66.73
39843;BME280;25514;46.764;15.406;2022-08-05T00:21:21;96981.84;;;22.04;66.71
39843;BME280;25514;46.764;15.406;2022-08-05T00:23:47;96983.84;;;21.92;67.11
39843;BME280;25514;46.764;15.406;2022-08-05T00:26:14;96973.72;;;21.89;67.06
39843;BME280;25514;46.764;15.406;2022-08-05T00:28:40;96968.44;;;21.91;67.21
39843;BME280;25514;46.764;15.406;2022-08-05T00:31:06;96975.00;;;21.99;66.30
39843;BME280;25514;46.764;15.406;2022-08-05T00:33:32;96973.97;;;21.97;66.35
39843;BME280;25514;46.764;15.406;2022-08-05T00:35:59;96972.22;;;21.94;66.07
39843;BME280;25514;46.764;15.406;2022-08-05T00:38:24;96969.19;;;21.92;66.10
39843;BME280;25514;46.764;15.406;2022-08-05T00:40:55;96966.13;;;21.84;67.04
39843;BME280;25514;46.764;15.406;2022-08-05T00:43:21;96968.13;;;21.78;66.95
39843;BME280;25514;46.764;15.406;2022-08-05T00:45:47;96971.66;;;21.72;67.62
39843;BME280;25514;46.764;15.406;2022-08-05T00:48:16;96968.94;;;21.41;69.14
39843;BME280;25514;46.764;15.406;2022-08-05T00:50:44;96972.31;;;21.13;70.53
39843;BME280;25514;46.764;15.406;2022-08-05T00:53:10;96966.50;;;21.05;71.20
39843;BME280;25514;46.764;15.406;2022-08-05T00:55:36;96961.94;;;21.02;71.31
39843;BME280;25514;46.764;15.406;2022-08-05T00:58:01;96966.50;;;21.05;70.22
39843;BME280;25514;46.764;15.406;2022-08-05T01:00:29;96959.22;;;21.19;69.16
39843;BME280;25514;46.764;15.406;2022-08-05T01:02:56;96954.97;;;21.24;69.66
39843;BME280;25514;46.764;15.406;2022-08-05T01:05:22;96958.72;;;21.21;69.43
39843;BME280;25514;46.764;15.406;2022-08-05T01:07:48;96961.00;;;21.22;69.10
39843;BME280;25514;46.764;15.406;2022-08-05T01:10:15;96949.91;;;21.22;70.01
39843;BME280;25514;46.764;15.406;2022-08-05T01:12:47;96945.63;;;21.21;69.87
39843;BME280;25514;46.764;15.406;2022-08-05T01:15:17;96941.22;;;21.03;70.40
39843;BME280;25514;46.764;15.406;2022-08-05T01:17:51;96957.38;;;20.99;71.00
39843;BME280;25514;46.764;15.406;2022-08-05T01:28:57;96946.72;;;20.92;70.10
39843;BME280;25514;46.764;15.406;2022-08-05T01:31:47;96949.97;;;20.90;69.22
39843;BME280;25514;46.764;15.406;2022-08-05T01:34:37;96955.53;;;20.90;69.23
39843;BME280;25514;46.764;15.406;2022-08-05T01:39:30;96948.53;;;21.00;68.13
39843;BME280;25514;46.764;15.406;2022-08-05T01:41:57;96943.50;;;21.05;67.89
39843;BME280;25514;46.764;15.406;2022-08-05T01:44:24;96938.94;;;21.01;68.23
39843;BME280;25514;46.764;15.406;2022-08-05T01:46:51;96947.00;;;20.99;68.26
39843;BME280;25514;46.764;15.406;2022-08-05T01:49:21;96933.63;;;20.98;67.79
39843;BME280;25514;46.764;15.406;2022-08-05T01:51:49;96937.44;;;21.00;67.35
39843;BME280;25514;46.764;15.406;2022-08-05T01:54:18;96930.34;;;20.99;67.36
39843;BME280;25514;46.764;15.406;2022-08-05T01:56:44;96932.09;;;20.97;67.35
39843;BME280;25514;46.764;15.406;2022-08-05T01:59:12;96933.34;;;20.96;67.14
39843;BME280;25514;46.764;15.406;2022-08-05T02:01:40;96927.03;;;20.95;66.96
39843;BME280;25514;46.764;15.406;2022-08-05T02:04:08;96929.81;;;20.95;66.93
39843;BME280;25514;46.764;15.406;2022-08-05T02:06:34;96925.03;;;20.96;66.65
39843;BME280;25514;46.764;15.406;2022-08-05T02:09:00;96923.00;;;20.96;66.55
39843;BME280;25514;46.764;15.406;2022-08-05T02:11:34;96928.06;;;20.98;66.79
39843;BME280;25514;46.764;15.406;2022-08-05T02:14:10;96920.47;;;20.93;67.24
39843;BME280;25514;46.764;15.406;2022-08-05T02:16:50;96926.97;;;20.84;67.53
39843;BME280;25514;46.764;15.406;2022-08-05T02:19:40;96924.91;;;20.79;67.65
39843;BME280;25514;46.764;15.406;2022-08-05T02:22:29;96921.34;;;20.73;67.64
39843;BME280;25514;46.764;15.406;2022-08-05T02:25:09;96919.31;;;20.73;67.33
39843;BME280;25514;46.764;15.406;2022-08-05T02:27:37;96924.88;;;20.73;67.17
39843;BME280;25514;46.764;15.406;2022-08-05T02:30:05;96915.00;;;20.72;67.23
39843;BME280;25514;46.764;15.406;2022-08-05T02:32:33;96917.78;;;20.72;67.08
39843;BME280;25514;46.764;15.406;2022-08-05T02:35:01;96917.28;;;20.74;67.13
39843;BME280;25514;46.764;15.406;2022-08-05T02:37:29;96916.28;;;20.71;67.46
39843;BME280;25514;46.764;15.406;2022-08-05T02:39:57;96912.22;;;20.67;67.76
39843;BME280;25514;46.764;15.406;2022-08-05T02:42:23;96914.41;;;20.62;68.21
39843;BME280;25514;46.764;15.406;2022-08-05T02:44:49;96908.31;;;20.58;68.18
39843;BME280;25514;46.764;15.406;2022-08-05T02:47:16;96908.06;;;20.56;68.40
39843;BME280;25514;46.764;15.406;2022-08-05T02:49:42;96908.81;;;20.57;68.42
39843;BME280;25514;46.764;15.406;2022-08-05T02:52:18;96910.09;;;20.56;68.38
39843;BME280;25514;46.764;15.406;2022-08-05T02:54:44;96907.53;;;20.52;68.46
39843;BME280;25514;46.764;15.406;2022-08-05T02:57:14;96908.53;;;20.49;69.10
39843;BME280;25514;46.764;15.406;2022-08-05T02:59:42;96906.69;;;20.40;71.80
39843;BME280;25514;46.764;15.406;2022-08-05T03:02:10;96915.41;;;20.27;74.40
39843;BME280;25514;46.764;15.406;2022-08-05T03:04:38;96905.47;;;20.15;75.13
39843;BME280;25514;46.764;15.406;2022-08-05T03:07:05;96907.88;;;20.02;75.54
39843;BME280;25514;46.764;15.406;2022-08-05T03:09:31;96900.50;;;19.93;75.49
39843;BME280;25514;46.764;15.406;2022-08-05T03:11:57;96905.72;;;19.85;74.46
39843;BME280;25514;46.764;15.406;2022-08-05T03:14:22;96905.16;;;19.81;73.95
39843;BME280;25514;46.764;15.406;2022-08-05T03:16:48;96898.56;;;19.79;74.21
39843;BME280;25514;46.764;15.406;2022-08-05T03:19:13;96905.53;;;19.74;74.04
39843;BME280;25514;46.764;15.406;2022-08-05T03:21:39;96905.53;;;19.74;74.32
39843;BME280;25514;46.764;15.406;2022-08-05T03:24:05;96903.25;;;19.72;73.97
39843;BME280;25514;46.764;15.406;2022-08-05T03:26:31;96900.00;;;19.74;73.58
39843;BME280;25514;46.764;15.406;2022-08-05T03:28:57;96906.53;;;19.71;73.67
39843;BME280;25514;46.764;15.406;2022-08-05T03:31:24;96902.78;;;19.74;73.47
39843;BME280;25514;46.764;15.406;2022-08-05T03:33:51;96897.53;;;19.76;73.30
39843;BME280;25514;46.764;15.406;2022-08-05T03:36:17;96899.06;;;19.77;73.14
39843;BME280;25514;46.764;15.406;2022-08-05T03:38:42;96896.75;;;19.75;72.83
39843;BME280;25514;46.764;15.406;2022-08-05T03:41:08;96899.34;;;19.79;72.49
39843;BME280;25514;46.764;15.406;2022-08-05T03:43:34;96900.09;;;19.80;73.25
39843;BME280;25514;46.764;15.406;2022-08-05T03:46:00;96897.72;;;19.72;73.34
39843;BME280;25514;46.764;15.406;2022-08-05T03:48:27;96907.56;;;19.73;73.69
39843;BME280;25514;46.764;15.406;2022-08-05T03:51:14;96902.50;;;19.72;73.77
39843;BME280;25514;46.764;15.406;2022-08-05T03:56:32;96909.78;;;19.69;72.42
39843;BME280;25514;46.764;15.406;2022-08-05T03:59:08;96910.34;;;19.73;72.47
39843;BME280;25514;46.764;15.406;2022-08-05T04:01:38;96905.06;;;19.75;73.45
39843;BME280;25514;46.764;15.406;2022-08-05T04:04:04;96908.59;;;19.76;74.30
39843;BME280;25514;46.764;15.406;2022-08-05T04:06:32;96903.25;;;19.72;74.53
39843;BME280;25514;46.764;15.406;2022-08-05T04:09:00;96900.44;;;19.67;74.95
39843;BME280;25514;46.764;15.406;2022-08-05T04:11:26;96903.84;;;19.56;75.35
39843;BME280;25514;46.764;15.406;2022-08-05T04:13:52;96892.84;;;19.41;76.66
39843;BME280;25514;46.764;15.406;2022-08-05T04:16:18;96900.47;;;19.26;78.34
39843;BME280;25514;46.764;15.406;2022-08-05T04:18:45;96910.56;;;19.08;80.93
39843;BME280;25514;46.764;15.406;2022-08-05T04:21:11;96904.13;;;18.96;83.28
39843;BME280;25514;46.764;15.406;2022-08-05T04:23:37;96906.91;;;18.81;85.39
39843;BME280;25514;46.764;15.406;2022-08-05T04:26:03;96906.75;;;18.70;87.02
39843;BME280;25514;46.764;15.406;2022-08-05T04:28:29;96901.03;;;18.59;88.41
39843;BME280;25514;46.764;15.406;2022-08-05T04:30:55;96900.78;;;18.57;89.15
39843;BME280;25514;46.764;15.406;2022-08-05T04:33:20;96898.38;;;18.49;89.01
39843;BME280;25514;46.764;15.406;2022-08-05T04:35:46;96903.75;;;18.53;87.59
39843;BME280;25514;46.764;15.406;2022-08-05T04:38:11;96910.19;;;18.65;87.09
39843;BME280;25514;46.764;15.406;2022-08-05T04:40:38;96910.38;;;18.76;86.49
39843;BME280;25514;46.764;15.406;2022-08-05T04:43:05;96903.50;;;18.86;85.70
39843;BME280;25514;46.764;15.406;2022-08-05T04:45:30;96904.91;;;18.97;84.77
39843;BME280;25514;46.764;15.406;2022-08-05T04:48:11;96907.81;;;19.08;84.13
39843;BME280;25514;46.764;15.406;2022-08-05T04:50:40;96901.88;;;19.15;83.24
39843;BME280;25514;46.764;15.406;2022-08-05T04:53:10;96903.72;;;19.24;82.94
39843;BME280;25514;46.764;15.406;2022-08-05T04:55:36;96896.06;;;19.34;82.75
39843;BME280;25514;46.764;15.406;2022-08-05T04:58:03;96893.31;;;19.39;81.93
39843;BME280;25514;46.764;15.406;2022-08-05T05:00:31;96901.72;;;19.45;81.41
39843;BME280;25514;46.764;15.406;2022-08-05T05:02:56;96893.75;;;19.53;81.31
39843;BME280;25514;46.764;15.406;2022-08-05T05:05:22;96894.56;;;19.59;81.12
39843;BME280;25514;46.764;15.406;2022-08-05T05:07:47;96890.59;;;19.66;81.20
39843;BME280;25514;46.764;15.406;2022-08-05T05:10:13;96900.72;;;19.69;80.03
39843;BME280;25514;46.764;15.406;2022-08-05T05:12:38;96903.00;;;19.70;79.80
39843;BME280;25514;46.764;15.406;2022-08-05T05:15:05;96898.31;;;19.77;79.92
39843;BME280;25514;46.764;15.406;2022-08-05T05:17:40;96898.84;;;19.81;78.23
39843;BME280;25514;46.764;15.406;2022-08-05T05:20:08;96898.41;;;19.88;77.80
39843;BME280;25514;46.764;15.406;2022-08-05T05:22:34;96900.97;;;19.91;75.88
39843;BME280;25514;46.764;15.406;2022-08-05T05:24:59;96899.03;;;19.98;75.27
39843;BME280;25514;46.764;15.406;2022-08-05T05:27:28;96894.00;;;20.02;74.30
39843;BME280;25514;46.764;15.406;2022-08-05T05:29:54;96894.31;;;20.09;75.32
39843;BME280;25514;46.764;15.406;2022-08-05T05:32:19;96895.38;;;20.12;74.24
39843;BME280;25514;46.764;15.406;2022-08-05T05:34:45;96895.38;;;20.18;75.09
39843;BME280;25514;46.764;15.406;2022-08-05T05:37:13;96895.38;;;20.18;74.74
39843;BME280;25514;46.764;15.406;2022-08-05T05:39:39;96893.66;;;20.20;73.67
39843;BME280;25514;46.764;15.406;2022-08-05T05:42:05;96892.25;;;20.31;74.17
39843;BME280;25514;46.764;15.406;2022-08-05T05:44:31;96893.47;;;20.29;74.10
39843;BME280;25514;46.764;15.406;2022-08-05T05:46:57;96888.47;;;20.34;73.51
39843;BME280;25514;46.764;15.406;2022-08-05T05:49:22;96890.03;;;20.40;73.83
39843;BME280;25514;46.764;15.406;2022-08-05T05:51:48;96891.38;;;20.51;75.22
39843;BME280;25514;46.764;15.406;2022-08-05T05:54:13;96890.16;;;20.57;76.90
39843;BME280;25514;46.764;15.406;2022-08-05T05:56:39;96894.50;;;20.64;77.67
39843;BME280;25514;46.764;15.406;2022-08-05T05:59:07;96901.38;;;20.69;78.89
39843;BME280;25514;46.764;15.406;2022-08-05T06:01:35;96895.56;;;20.72;79.03
39843;BME280;25514;46.764;15.406;2022-08-05T06:04:01;96895.63;;;20.78;79.50
39843;BME280;25514;46.764;15.406;2022-08-05T06:06:27;96894.88;;;20.83;80.13
39843;BME280;25514;46.764;15.406;2022-08-05T06:08:52;96895.69;;;20.89;79.98
39843;BME280;25514;46.764;15.406;2022-08-05T06:11:18;96898.00;;;20.96;80.36
39843;BME280;25514;46.764;15.406;2022-08-05T06:13:43;96896.25;;;21.05;80.52
39843;BME280;25514;46.764;15.406;2022-08-05T06:16:09;96897.59;;;21.15;79.93
39843;BME280;25514;46.764;15.406;2022-08-05T06:18:34;96899.13;;;21.22;79.12
39843;BME280;25514;46.764;15.406;2022-08-05T06:21:02;96895.09;;;21.28;79.01
39843;BME280;25514;46.764;15.406;2022-08-05T06:23:28;96899.94;;;21.39;79.40
39843;BME280;25514;46.764;15.406;2022-08-05T06:25:54;96901.56;;;21.63;78.88
39843;BME280;25514;46.764;15.406;2022-08-05T06:28:19;96905.69;;;21.90;78.65
39843;BME280;25514;46.764;15.406;2022-08-05T06:30:44;96902.69;;;22.27;76.93
39843;BME280;25514;46.764;15.406;2022-08-05T06:33:10;96907.47;;;22.78;75.47
39843;BME280;25514;46.764;15.406;2022-08-05T06:35:35;96898.03;;;23.21;72.50
39843;BME280;25514;46.764;15.406;2022-08-05T06:38:01;96897.63;;;23.64;70.49
39843;BME280;25514;46.764;15.406;2022-08-05T06:40:26;96896.06;;;24.10;68.42
39843;BME280;25514;46.764;15.406;2022-08-05T06:42:52;96900.34;;;24.47;66.30
39843;BME280;25514;46.764;15.406;2022-08-05T06:45:18;96902.88;;;24.81;64.34
39843;BME280;25514;46.764;15.406;2022-08-05T06:47:44;96900.41;;;25.21;62.94
39843;BME280;25514;46.764;15.406;2022-08-05T06:50:09;96903.34;;;25.54;61.91
39843;BME280;25514;46.764;15.406;2022-08-05T06:52:35;96903.88;;;25.90;60.89
39843;BME280;25514;46.764;15.406;2022-08-05T06:55:00;96891.34;;;26.29;59.91
39843;BME280;25514;46.764;15.406;2022-08-05T06:57:25;96894.75;;;26.54;58.49
39843;BME280;25514;46.764;15.406;2022-08-05T06:59:51;96901.94;;;26.82;57.66
39843;BME280;25514;46.764;15.406;2022-08-05T07:02:16;96897.75;;;27.29;56.26
39843;BME280;25514;46.764;15.406;2022-08-05T07:04:42;96898.56;;;27.64;55.65
39843;BME280;25514;46.764;15.406;2022-08-05T07:07:07;96891.88;;;28.02;54.85
39843;BME280;25514;46.764;15.406;2022-08-05T07:09:33;96896.31;;;28.31;53.49
39843;BME280;25514;46.764;15.406;2022-08-05T07:11:58;96891.31;;;28.59;52.65
39843;BME280;25514;46.764;15.406;2022-08-05T07:14:24;96895.53;;;28.94;52.28
39843;BME280;25514;46.764;15.406;2022-08-05T07:17:08;96896.66;;;29.28;50.58
39843;BME280;25514;46.764;15.406;2022-08-05T07:19:34;96888.34;;;29.51;49.79
39843;BME280;25514;46.764;15.406;2022-08-05T07:21:59;96890.19;;;29.85;49.69
39843;BME280;25514;46.764;15.406;2022-08-05T07:24:25;96898.88;;;30.10;46.51
39843;BME280;25514;46.764;15.406;2022-08-05T07:26:51;96887.47;;;30.31;45.94
39843;BME280;25514;46.764;15.406;2022-08-05T07:29:17;96882.19;;;30.35;44.78
39843;BME280;25514;46.764;15.406;2022-08-05T07:31:42;96886.16;;;30.55;45.39
39843;BME280;25514;46.764;15.406;2022-08-05T07:34:08;96892.75;;;30.65;45.60
39843;BME280;25514;46.764;15.406;2022-08-05T07:36:33;96888.03;;;30.83;44.96
39843;BME280;25514;46.764;15.406;2022-08-05T07:39:00;96883.50;;;30.88;43.31
39843;BME280;25514;46.764;15.406;2022-08-05T07:41:26;96892.91;;;31.06;43.03
39843;BME280;25514;46.764;15.406;2022-08-05T07:43:53;96893.66;;;31.14;42.12
39843;BME280;25514;46.764;15.406;2022-08-05T07:46:18;96889.50;;;31.23;42.12
39843;BME280;25514;46.764;15.406;2022-08-05T07:48:44;96888.69;;;31.30;42.53
39843;BME280;25514;46.764;15.406;2022-08-05T07:51:09;96892.06;;;31.44;42.98
39843;BME280;25514;46.764;15.406;2022-08-05T07:53:34;96881.66;;;31.62;41.61
39843;BME280;25514;46.764;15.406;2022-08-05T07:56:02;96877.63;;;31.81;40.73
39843;BME280;25514;46.764;15.406;2022-08-05T07:58:28;96878.84;;;31.95;40.61
39843;BME280;25514;46.764;15.406;2022-08-05T08:00:53;96883.16;;;32.04;41.26
39843;BME280;25514;46.764;15.406;2022-08-05T08:03:19;96880.06;;;32.17;40.48
39843;BME280;25514;46.764;15.406;2022-08-05T08:05:44;96877.81;;;32.16;40.35
39843;BME280;25514;46.764;15.406;2022-08-05T08:08:10;96881.94;;;32.15;40.18
39843;BME280;25514;46.764;15.406;2022-08-05T08:10:36;96875.97;;;32.11;39.98
39843;BME280;25514;46.764;15.406;2022-08-05T08:13:02;96877.81;;;32.16;40.25
39843;BME280;25514;46.764;15.406;2022-08-05T08:15:28;96869.97;;;32.32;40.52
39843;BME280;25514;46.764;15.406;2022-08-05T08:17:54;96875.63;;;32.32;40.04
39843;BME280;25514;46.764;15.406;2022-08-05T08:20:24;96872.34;;;32.43;39.92
39843;BME280;25514;46.764;15.406;2022-08-05T08:22:51;96871.81;;;32.62;39.83
39843;BME280;25514;46.764;15.406;2022-08-05T08:25:16;96874.69;;;32.79;39.89
39843;BME280;25514;46.764;15.406;2022-08-05T08:27:42;96869.63;;;32.95;39.66
39843;BME280;25514;46.764;15.406;2022-08-05T08:30:09;96871.97;;;33.07;39.30
39843;BME280;25514;46.764;15.406;2022-08-05T08:32:35;96876.06;;;33.13;38.67
39843;BME280;25514;46.764;15.406;2022-08-05T08:35:01;96867.72;;;33.15;38.23
39843;BME280;25514;46.764;15.406;2022-08-05T08:37:26;96871.22;;;33.24;37.45
39843;BME280;25514;46.764;15.406;2022-08-05T08:39:52;96871.25;;;33.41;37.74
39843;BME280;25514;46.764;15.406;2022-08-05T08:42:18;96854.25;;;33.41;35.88
39843;BME280;25514;46.764;15.406;2022-08-05T08:44:45;96861.06;;;33.56;38.13
39843;BME280;25514;46.764;15.406;2022-08-05T08:47:11;96858.34;;;33.75;38.02
39843;BME280;25514;46.764;15.406;2022-08-05T08:49:38;96858.63;;;33.97;37.74
39843;BME280;25514;46.764;15.406;2022-08-05T08:52:13;96865.25;;;34.09;34.25
39843;BME280;25514;46.764;15.406;2022-08-05T08:54:42;96861.09;;;34.10;35.42
39843;BME280;25514;46.764;15.406;2022-08-05T08:57:08;96853.91;;;34.09;32.34
39843;BME280;25514;46.764;15.406;2022-08-05T08:59:36;96853.59;;;34.32;34.62
39843;BME280;25514;46.764;15.406;2022-08-05T09:02:05;96854.72;;;34.56;35.05
39843;BME280;25514;46.764;15.406;2022-08-05T09:04:33;96851.88;;;34.56;35.87
39843;BME280;25514;46.764;15.406;2022-08-05T09:07:05;96844.25;;;34.59;34.43
39843;BME280;25514;46.764;15.406;2022-08-05T09:09:32;96845.78;;;34.70;34.16
39843;BME280;25514;46.764;15.406;2022-08-05T09:11:57;96843.25;;;34.74;34.74
39843;BME280;25514;46.764;15.406;2022-08-05T09:14:23;96848.09;;;35.01;34.67
39843;BME280;25514;46.764;15.406;2022-08-05T09:16:49;96845.25;;;35.01;34.03
39843;BME280;25514;46.764;15.406;2022-08-05T09:19:15;96844.03;;;35.14;34.82
39843;BME280;25514;46.764;15.406;2022-08-05T09:21:41;96847.97;;;35.38;35.33
39843;BME280;25514;46.764;15.406;2022-08-05T09:24:07;96839.28;;;35.36;35.25
39843;BME280;25514;46.764;15.406;2022-08-05T09:26:34;96832.56;;;35.41;33.30
39843;BME280;25514;46.764;15.406;2022-08-05T09:29:05;96830.16;;;35.37;32.31
39843;BME280;25514;46.764;15.406;2022-08-05T09:31:31;96835.41;;;35.41;32.69
39843;BME280;25514;46.764;15.406;2022-08-05T09:33:59;96831.19;;;35.61;33.70
39843;BME280;25514;46.764;15.406;2022-08-05T09:39:08;96825.97;;;36.09;32.83
39843;BME280;25514;46.764;15.406;2022-08-05T09:41:34;96824.91;;;36.14;31.79
39843;BME280;25514;46.764;15.406;2022-08-05T09:44:36;96822.88;;;36.36;31.24
39843;BME280;25514;46.764;15.406;2022-08-05T09:47:28;96825.91;;;36.28;31.59
39843;BME280;25514;46.764;15.406;2022-08-05T09:49:55;96830.44;;;36.53;31.83
39843;BME280;25514;46.764;15.406;2022-08-05T09:52:27;96816.44;;;36.57;31.71
39843;BME280;25514;46.764;15.406;2022-08-05T09:55:05;96812.94;;;36.47;31.29
39843;BME280;25514;46.764;15.406;2022-08-05T09:57:39;96817.59;;;36.42;30.57
39843;BME280;25514;46.764;15.406;2022-08-05T10:00:12;96813.28;;;36.63;32.35
39843;BME280;25514;46.764;15.406;2022-08-05T10:02:42;96810.84;;;36.69;31.47
39843;BME280;25514;46.764;15.406;2022-08-05T10:05:13;96807.78;;;36.55;30.39
39843;BME280;25514;46.764;15.406;2022-08-05T10:10:15;96804.47;;;36.59;31.59
39843;BME280;25514;46.764;15.406;2022-08-05T10:12:52;96808.72;;;36.48;32.25
39843;BME280;25514;46.764;15.406;2022-08-05T10:15:23;96811.38;;;36.24;31.86
39843;BME280;25514;46.764;15.406;2022-08-05T10:21:03;96801.81;;;36.73;33.63
39843;BME280;25514;46.764;15.406;2022-08-05T10:23:34;96809.81;;;36.43;31.00
39843;BME280;25514;46.764;15.406;2022-08-05T10:26:06;96802.91;;;36.67;32.38
39843;BME280;25514;46.764;15.406;2022-08-05T10:28:33;96794.97;;;36.66;32.23
39843;BME280;25514;46.764;15.406;2022-08-05T10:31:00;96798.59;;;36.88;32.34
39843;BME280;25514;46.764;15.406;2022-08-05T10:33:29;96799.41;;;37.00;32.18
39843;BME280;25514;46.764;15.406;2022-08-05T10:35:56;96799.25;;;37.20;31.32
39843;BME280;25514;46.764;15.406;2022-08-05T10:38:24;96796.50;;;37.44;32.49
39843;BME280;25514;46.764;15.406;2022-08-05T10:43:46;96785.47;;;37.62;32.28
39843;BME280;25514;46.764;15.406;2022-08-05T10:46:16;96787.97;;;37.67;31.28
39843;BME280;25514;46.764;15.406;2022-08-05T10:48:45;96784.75;;;37.61;30.47
39843;BME280;25514;46.764;15.406;2022-08-05T10:51:15;96781.78;;;37.59;30.96
39843;BME280;25514;46.764;15.406;2022-08-05T10:56:17;96781.47;;;37.88;31.16
39843;BME280;25514;46.764;15.406;2022-08-05T11:01:27;96781.84;;;37.83;31.48
39843;BME280;25514;46.764;15.406;2022-08-05T11:04:20;96779.25;;;38.10;32.11
39843;BME280;25514;46.764;15.406;2022-08-05T11:09:47;96781.38;;;38.22;30.53
39843;BME280;25514;46.764;15.406;2022-08-05T11:17:38;96768.19;;;37.81;29.69
39843;BME280;25514;46.764;15.406;2022-08-05T11:20:05;96775.41;;;38.18;29.90
39843;BME280;25514;46.764;15.406;2022-08-05T11:22:47;96768.19;;;38.28;30.82
39843;BME280;25514;46.764;15.406;2022-08-05T11:27:51;96769.78;;;37.96;30.46
39843;BME280;25514;46.764;15.406;2022-08-05T11:30:16;96769.94;;;37.98;29.44
39843;BME280;25514;46.764;15.406;2022-08-05T11:32:42;96766.44;;;38.11;29.15
39843;BME280;25514;46.764;15.406;2022-08-05T11:38:11;96762.22;;;38.36;30.87
39843;BME280;25514;46.764;15.406;2022-08-05T11:41:25;96764.09;;;38.43;29.56
39843;BME280;25514;46.764;15.406;2022-08-05T11:44:01;96762.31;;;38.62;29.79
39843;BME280;25514;46.764;15.406;2022-08-05T11:46:32;96756.47;;;38.60;29.81
39843;BME280;25514;46.764;15.406;2022-08-05T11:49:00;96758.66;;;38.24;28.98
39843;BME280;25514;46.764;15.406;2022-08-05T11:51:27;96763.47;;;38.33;29.39
39843;BME280;25514;46.764;15.406;2022-08-05T11:53:53;96764.97;;;38.34;28.81
39843;BME280;25514;46.764;15.406;2022-08-05T11:56:20;96763.25;;;38.29;28.54
39843;BME280;25514;46.764;15.406;2022-08-05T11:58:46;96762.25;;;38.24;28.92
39843;BME280;25514;46.764;15.406;2022-08-05T12:01:14;96766.22;;;38.31;28.27
39843;BME280;25514;46.764;15.406;2022-08-05T12:06:06;96752.53;;;38.65;28.96
39843;BME280;25514;46.764;15.406;2022-08-05T12:08:32;96750.28;;;38.63;28.69
39843;BME280;25514;46.764;15.406;2022-08-05T12:10:59;96757.50;;;38.53;28.01
39843;BME280;25514;46.764;15.406;2022-08-05T12:13:27;96758.97;;;38.54;28.20
39843;BME280;25514;46.764;15.406;2022-08-05T12:15:52;96754.00;;;38.66;28.62
39843;BME280;25514;46.764;15.406;2022-08-05T12:18:18;96762.97;;;38.48;27.94
39843;BME280;25514;46.764;15.406;2022-08-05T12:20:43;96746.91;;;38.55;28.14
39843;BME280;25514;46.764;15.406;2022-08-05T12:23:10;96748.06;;;38.50;28.19
39843;BME280;25514;46.764;15.406;2022-08-05T12:25:54;96743.19;;;38.64;28.70
39843;BME280;25514;46.764;15.406;2022-08-05T12:28:30;96736.38;;;38.46;28.50
39843;BME280;25514;46.764;15.406;2022-08-05T12:30:56;96753.81;;;38.38;28.18
39843;BME280;25514;46.764;15.406;2022-08-05T12:33:22;96743.81;;;38.63;28.44
39843;BME280;25514;46.764;15.406;2022-08-05T12:35:48;96736.25;;;38.56;27.67
39843;BME280;25514;46.764;15.406;2022-08-05T12:38:14;96731.03;;;38.64;28.93
39843;BME280;25514;46.764;15.406;2022-08-05T12:40:39;96735.66;;;38.45;27.75
39843;BME280;25514;46.764;15.406;2022-08-05T12:43:08;96725.66;;;38.82;28.52
39843;BME280;25514;46.764;15.406;2022-08-05T12:45:33;96730.03;;;38.97;28.40
39843;BME280;25514;46.764;15.406;2022-08-05T12:47:59;96727.63;;;39.05;28.56
39843;BME280;25514;46.764;15.406;2022-08-05T12:50:38;96719.94;;;38.82;27.39
39843;BME280;25514;46.764;15.406;2022-08-05T12:53:03;96716.03;;;38.89;27.41
39843;BME280;25514;46.764;15.406;2022-08-05T12:55:29;96726.75;;;39.14;27.48
39843;BME280;25514;46.764;15.406;2022-08-05T12:57:56;96720.00;;;39.22;28.01
39843;BME280;25514;46.764;15.406;2022-08-05T13:00:24;96713.34;;;39.05;27.46
39843;BME280;25514;46.764;15.406;2022-08-05T13:02:51;96709.50;;;39.12;28.25
39843;BME280;25514;46.764;15.406;2022-08-05T13:05:16;96705.63;;;39.19;27.88
39843;BME280;25514;46.764;15.406;2022-08-05T13:07:42;96706.97;;;39.18;27.68
39843;BME280;25514;46.764;15.406;2022-08-05T13:10:11;96701.13;;;38.91;27.20
39843;BME280;25514;46.764;15.406;2022-08-05T13:12:43;96695.03;;;38.96;27.04
39843;BME280;25514;46.764;15.406;2022-08-05T13:15:09;96694.91;;;38.69;26.65
39843;BME280;25514;46.764;15.406;2022-08-05T13:17:35;96694.28;;;38.70;26.99
39843;BME280;25514;46.764;15.406;2022-08-05T13:20:11;96695.31;;;38.89;27.17
39843;BME280;25514;46.764;15.406;2022-08-05T13:22:45;96687.41;;;38.75;27.03
39843;BME280;25514;46.764;15.406;2022-08-05T13:25:13;96684.34;;;38.97;27.28
39843;BME280;25514;46.764;15.406;2022-08-05T13:27:47;96684.34;;;38.97;27.59
39843;BME280;25514;46.764;15.406;2022-08-05T13:30:14;96680.22;;;39.00;27.15
39843;BME280;25514;46.764;15.406;2022-08-05T13:32:40;96673.72;;;39.11;28.05
39843;BME280;25514;46.764;15.406;2022-08-05T13:35:06;96663.06;;;39.00;27.16
39843;BME280;25514;46.764;15.406;2022-08-05T13:37:34;96667.19;;;38.97;27.65
39843;BME280;25514;46.764;15.406;2022-08-05T13:40:00;96662.69;;;39.06;27.40
39843;BME280;25514;46.764;15.406;2022-08-05T13:42:26;96656.47;;;39.09;27.53